ローマ/フィウミチーノ の空港の天気 - METARとTAF

ローマ・レオナルド・ダ・ビンチ国際空港 ( LIRF / FCO ) - イタリア ローマ
飛行場実況気象(Metar)
観測時間11/20 04:20 CET (11/20 03:20 UTC)
風向・風速不定 1m/s
視程10km以上
天気現象
なし
気温4℃
湿度93%
気圧1017hPa
METARLIRF 200320Z VRB02KT CAVOK 04/03 Q1017 NOSIG
過去の天気等 Google飛行場航空写真 Wunderground天気予報

過去48時間のMETAR

飛行場予報(TAF)
発表時間: 11/20 00:00 CET (11/19 23:00 UTC)
予報対象時間: 20日1時 CET ~ 21日7時 CET
風向・風速北北東 5m/s
視程10km以上
なし
20日10時 CET ~ 20日12時 CET に徐々に
風向・風速南 5m/s
20日17時 CET ~ 20日19時 CET に徐々に
風向・風速北東 5m/s
TAF LIRF 192300Z 2000/2106 02010KT CAVOK
BECMG 2009/2011 17010KT
BECMG 2016/2018 05010KT